createdAt,value
2018-09-22T00:00:00.422Z,18.40
2018-09-22T00:02:29.282Z,18.40
2018-09-22T00:04:57.741Z,18.40
2018-09-22T00:07:26.223Z,18.40
2018-09-22T00:09:54.820Z,18.40
2018-09-22T00:12:23.259Z,18.40
2018-09-22T00:14:51.809Z,18.40
2018-09-22T00:17:20.319Z,18.40
2018-09-22T00:19:48.900Z,18.50
2018-09-22T00:22:17.426Z,18.50
2018-09-22T00:24:45.905Z,18.50
2018-09-22T00:27:14.415Z,18.40
2018-09-22T00:29:42.913Z,18.40
2018-09-22T00:32:11.383Z,18.50
2018-09-22T00:34:39.834Z,18.40
2018-09-22T00:37:08.615Z,18.40
2018-09-22T00:39:37.102Z,18.40
2018-09-22T00:42:05.940Z,18.30
2018-09-22T00:44:34.433Z,18.40
2018-09-22T00:47:02.910Z,18.30
2018-09-22T00:49:31.519Z,18.30
2018-09-22T00:52:00.004Z,18.30
2018-09-22T00:54:28.510Z,18.40
2018-09-22T00:56:57.021Z,18.50
2018-09-22T00:59:25.460Z,18.50
2018-09-22T01:01:53.965Z,18.60
2018-09-22T01:04:22.445Z,18.60
2018-09-22T01:06:50.898Z,18.60
2018-09-22T01:09:19.356Z,18.50
2018-09-22T01:11:47.831Z,18.50
2018-09-22T01:14:16.282Z,18.40
2018-09-22T01:16:44.768Z,18.30
2018-09-22T01:19:13.240Z,18.30
2018-09-22T01:21:41.697Z,18.30
2018-09-22T01:24:10.354Z,18.20
2018-09-22T01:26:38.854Z,18.00
2018-09-22T01:29:07.435Z,17.90
2018-09-22T01:31:35.908Z,17.80
2018-09-22T01:34:04.350Z,17.60
2018-09-22T01:36:32.897Z,17.50
2018-09-22T01:39:01.498Z,17.20
2018-09-22T01:41:30.091Z,17.10
2018-09-22T01:43:58.732Z,16.90
2018-09-22T01:46:27.273Z,16.80
2018-09-22T01:48:56.003Z,16.70
2018-09-22T01:51:24.574Z,16.60
2018-09-22T01:53:53.098Z,16.60
2018-09-22T01:56:21.639Z,16.50
2018-09-22T01:58:50.202Z,16.50
2018-09-22T02:01:18.791Z,16.40
2018-09-22T02:03:47.378Z,16.40
2018-09-22T02:06:16.218Z,16.30
2018-09-22T02:08:44.750Z,16.20
2018-09-22T02:11:13.277Z,16.10
2018-09-22T02:13:41.810Z,16.10
2018-09-22T02:16:11.052Z,16.10
2018-09-22T02:18:39.504Z,16.10
2018-09-22T02:21:07.985Z,16.00
2018-09-22T02:23:36.685Z,15.90
2018-09-22T02:26:05.187Z,15.80
2018-09-22T02:28:34.156Z,15.60
2018-09-22T02:31:02.669Z,15.60
2018-09-22T02:33:31.274Z,15.60
2018-09-22T02:35:59.724Z,15.50
2018-09-22T02:38:28.217Z,15.30
2018-09-22T02:40:56.664Z,15.10
2018-09-22T02:43:25.272Z,15.00
2018-09-22T02:45:53.763Z,14.80
2018-09-22T02:48:22.201Z,14.80
2018-09-22T02:50:50.652Z,14.90
2018-09-22T02:53:19.154Z,14.80
2018-09-22T02:55:47.779Z,14.80
2018-09-22T02:58:16.328Z,14.70
2018-09-22T03:00:44.854Z,14.70
2018-09-22T03:03:13.519Z,14.70
2018-09-22T03:05:42.115Z,14.60
2018-09-22T03:08:10.572Z,14.70
2018-09-22T03:10:39.161Z,14.50
2018-09-22T03:13:07.609Z,14.50
2018-09-22T03:15:36.111Z,14.40
2018-09-22T03:18:04.602Z,14.30
2018-09-22T03:20:33.034Z,14.20
2018-09-22T03:23:01.474Z,14.10
2018-09-22T03:25:29.954Z,14.00
2018-09-22T03:27:58.426Z,14.00
2018-09-22T03:30:26.859Z,13.90
2018-09-22T03:32:55.530Z,13.80
2018-09-22T03:35:24.054Z,13.90
2018-09-22T03:37:52.595Z,13.90
2018-09-22T03:40:21.077Z,13.90
2018-09-22T03:42:49.871Z,14.00
2018-09-22T03:45:18.483Z,14.00
2018-09-22T03:47:46.936Z,14.10
2018-09-22T03:50:15.448Z,14.00
2018-09-22T03:52:44.514Z,14.10
2018-09-22T03:55:13.027Z,14.10
2018-09-22T03:57:41.522Z,14.10
2018-09-22T04:00:10.456Z,14.00
2018-09-22T04:02:38.955Z,13.90
2018-09-22T04:05:07.781Z,13.90
2018-09-22T04:07:36.636Z,13.80
2018-09-22T04:10:05.337Z,13.70
2018-09-22T04:12:33.784Z,13.70
2018-09-22T04:15:02.289Z,13.60
2018-09-22T04:17:30.764Z,13.60
2018-09-22T04:19:59.329Z,13.60
2018-09-22T04:22:28.143Z,13.60
2018-09-22T04:24:56.678Z,13.60
2018-09-22T04:27:25.183Z,13.70
2018-09-22T04:29:53.725Z,13.60
2018-09-22T04:32:22.203Z,13.60
2018-09-22T04:34:50.735Z,13.60
2018-09-22T04:37:19.236Z,13.60
2018-09-22T04:39:47.746Z,13.60
2018-09-22T04:42:16.225Z,13.60
2018-09-22T04:44:44.917Z,13.70
2018-09-22T04:47:13.563Z,13.70
2018-09-22T04:49:42.075Z,13.70
2018-09-22T04:52:10.630Z,13.60
2018-09-22T04:54:39.127Z,13.50
2018-09-22T04:57:07.857Z,13.40
2018-09-22T04:59:36.344Z,13.40
2018-09-22T05:02:04.937Z,13.60
2018-09-22T05:04:33.535Z,13.60
2018-09-22T05:07:02.281Z,13.60
2018-09-22T05:09:30.785Z,13.60
2018-09-22T05:11:59.378Z,13.60
2018-09-22T05:14:27.930Z,13.60
2018-09-22T05:16:56.839Z,13.60
2018-09-22T05:19:25.338Z,13.60
2018-09-22T05:21:53.921Z,13.60
2018-09-22T05:24:22.780Z,13.70
2018-09-22T05:26:51.264Z,13.60
2018-09-22T05:29:19.755Z,13.70
2018-09-22T05:31:48.250Z,13.50
2018-09-22T05:34:16.801Z,13.40
2018-09-22T05:36:45.339Z,13.40
2018-09-22T05:39:13.795Z,13.50
2018-09-22T05:41:42.305Z,13.60
2018-09-22T05:44:10.802Z,13.50
2018-09-22T05:46:39.242Z,13.50
2018-09-22T05:49:07.806Z,13.40
2018-09-22T05:51:36.305Z,13.40
2018-09-22T05:54:04.790Z,13.40
2018-09-22T05:56:33.285Z,13.50
2018-09-22T05:59:01.893Z,13.50
2018-09-22T06:01:30.605Z,13.60
2018-09-22T06:03:59.167Z,13.60
2018-09-22T06:06:27.594Z,13.60
2018-09-22T06:08:56.153Z,13.60
2018-09-22T06:11:24.618Z,13.50
2018-09-22T06:13:53.165Z,13.40
2018-09-22T06:16:21.651Z,13.30
2018-09-22T06:18:50.133Z,13.30
2018-09-22T06:21:18.606Z,13.20
2018-09-22T06:23:47.090Z,13.30
2018-09-22T06:26:15.648Z,13.30
2018-09-22T06:28:44.237Z,13.30
2018-09-22T06:31:12.715Z,13.30
2018-09-22T06:33:41.279Z,13.40
2018-09-22T06:36:09.872Z,13.50
2018-09-22T06:38:38.454Z,13.50
2018-09-22T06:41:07.051Z,13.60
2018-09-22T06:43:35.633Z,13.60
2018-09-22T06:46:04.164Z,13.60
2018-09-22T06:48:32.967Z,13.50
2018-09-22T06:51:01.847Z,13.40
2018-09-22T06:53:30.448Z,13.50
2018-09-22T06:55:58.935Z,13.50
2018-09-22T06:58:27.494Z,13.50
2018-09-22T07:00:55.973Z,13.50
2018-09-22T07:03:24.505Z,13.50
2018-09-22T07:05:52.991Z,13.60
2018-09-22T07:08:21.576Z,13.50
2018-09-22T07:10:50.054Z,13.50
2018-09-22T07:13:18.586Z,13.40
2018-09-22T07:15:47.441Z,13.40
2018-09-22T07:18:16.111Z,13.50
2018-09-22T07:20:50.187Z,13.60
2018-09-22T07:23:19.184Z,13.70
2018-09-22T07:25:47.797Z,13.70
2018-09-22T07:28:16.313Z,13.80
2018-09-22T07:30:44.892Z,13.70
2018-09-22T07:33:13.518Z,13.60
2018-09-22T07:35:42.173Z,13.70
2018-09-22T07:38:10.660Z,13.60
2018-09-22T07:40:39.178Z,13.60
2018-09-22T07:43:08.200Z,13.60
2018-09-22T07:45:36.722Z,13.60
2018-09-22T07:48:05.577Z,13.70
2018-09-22T07:50:34.081Z,13.60
2018-09-22T07:53:02.839Z,13.60
2018-09-22T07:55:31.492Z,13.60
2018-09-22T07:57:59.976Z,13.60
2018-09-22T08:00:28.610Z,13.60
2018-09-22T08:02:57.131Z,13.60
2018-09-22T08:05:25.663Z,13.50
2018-09-22T08:07:54.168Z,13.50
2018-09-22T08:10:22.660Z,13.60
2018-09-22T08:12:51.261Z,13.50
2018-09-22T08:15:20.606Z,13.60
2018-09-22T08:17:49.081Z,13.60
2018-09-22T08:20:17.591Z,13.70
2018-09-22T08:22:46.110Z,13.60
2018-09-22T08:25:14.737Z,13.70
2018-09-22T08:27:43.524Z,13.70
2018-09-22T08:30:11.981Z,13.70
2018-09-22T08:32:40.466Z,13.80
2018-09-22T08:35:09.036Z,13.80
2018-09-22T08:37:37.500Z,13.90
2018-09-22T08:40:06.065Z,13.90
2018-09-22T08:42:34.712Z,13.90
2018-09-22T08:45:03.272Z,14.00
2018-09-22T08:47:32.015Z,14.00
2018-09-22T08:50:00.682Z,14.00
2018-09-22T08:52:29.183Z,14.10
2018-09-22T08:54:57.734Z,14.10
2018-09-22T08:57:26.198Z,14.20
2018-09-22T08:59:54.818Z,14.20
2018-09-22T09:02:23.357Z,14.20
2018-09-22T09:04:52.067Z,14.30
2018-09-22T09:07:20.648Z,14.30
2018-09-22T09:09:49.127Z,14.40
2018-09-22T09:12:17.689Z,14.40
2018-09-22T09:14:46.321Z,14.50
2018-09-22T09:17:14.816Z,14.50
2018-09-22T09:19:43.685Z,14.60
2018-09-22T09:22:12.176Z,14.60
2018-09-22T09:24:40.847Z,14.70
2018-09-22T09:27:09.463Z,14.80
2018-09-22T09:29:38.152Z,14.90
2018-09-22T09:32:06.735Z,14.90
2018-09-22T09:34:35.269Z,14.90
2018-09-22T09:37:03.740Z,14.90
2018-09-22T09:39:32.208Z,14.90
2018-09-22T09:42:00.726Z,14.90
2018-09-22T09:44:29.485Z,15.00
2018-09-22T09:46:58.129Z,15.10
2018-09-22T09:49:26.701Z,15.10
2018-09-22T09:51:55.188Z,15.10
2018-09-22T09:54:23.699Z,14.90
2018-09-22T09:56:52.211Z,15.00
2018-09-22T09:59:20.995Z,15.10
2018-09-22T10:01:49.988Z,15.00
2018-09-22T10:04:18.575Z,15.10
2018-09-22T10:06:47.425Z,15.00
2018-09-22T10:09:16.025Z,15.20
2018-09-22T10:11:44.718Z,15.20
2018-09-22T10:14:13.389Z,15.20
2018-09-22T10:16:41.941Z,15.30
2018-09-22T10:19:10.437Z,15.20
2018-09-22T10:21:38.902Z,15.30
2018-09-22T10:24:07.686Z,15.40
2018-09-22T10:26:36.391Z,15.50
2018-09-22T10:29:05.213Z,15.60
2018-09-22T10:31:33.712Z,15.60
2018-09-22T10:34:02.418Z,15.50
2018-09-22T10:36:31.164Z,15.60
2018-09-22T10:38:59.777Z,15.60
2018-09-22T10:41:28.590Z,15.80
2018-09-22T10:43:58.137Z,16.00
2018-09-22T10:46:27.714Z,16.30
2018-09-22T10:48:56.211Z,16.60
2018-09-22T10:51:24.712Z,16.90
2018-09-22T10:53:53.210Z,17.20
2018-09-22T10:56:21.687Z,17.20
2018-09-22T10:58:50.477Z,17.20
2018-09-22T11:01:19.271Z,17.10
2018-09-22T11:03:47.997Z,17.00
2018-09-22T11:06:16.522Z,16.80
2018-09-22T11:08:46.103Z,16.70
2018-09-22T11:11:14.698Z,16.60
2018-09-22T11:13:45.786Z,16.60
2018-09-22T11:16:14.251Z,16.60
2018-09-22T11:18:42.889Z,16.70
2018-09-22T11:21:11.391Z,16.70
2018-09-22T11:23:40.273Z,16.80
2018-09-22T11:26:08.779Z,16.80
2018-09-22T11:28:37.576Z,16.90
2018-09-22T11:31:06.653Z,16.90
2018-09-22T11:33:35.241Z,16.90
2018-09-22T11:36:03.739Z,16.90
2018-09-22T11:38:32.193Z,16.80
2018-09-22T11:41:00.916Z,16.70
2018-09-22T11:43:29.446Z,16.80
2018-09-22T11:45:57.916Z,16.90
2018-09-22T11:48:26.414Z,17.10
2018-09-22T11:50:54.884Z,17.20
2018-09-22T11:53:23.459Z,17.20
2018-09-22T11:55:53.193Z,17.10
2018-09-22T11:58:21.803Z,17.10
2018-09-22T12:00:50.350Z,17.00
2018-09-22T12:03:18.934Z,17.00
2018-09-22T12:05:47.567Z,16.90
2018-09-22T12:08:16.194Z,16.90
2018-09-22T12:10:44.992Z,16.90
2018-09-22T12:13:13.573Z,16.90
2018-09-22T12:15:42.302Z,16.90
2018-09-22T12:18:11.106Z,16.90
2018-09-22T12:20:39.665Z,16.90
2018-09-22T12:23:08.230Z,16.90
2018-09-22T12:25:36.761Z,16.90
2018-09-22T12:28:05.406Z,16.90
2018-09-22T12:30:35.257Z,16.90
2018-09-22T12:33:03.837Z,16.80
2018-09-22T12:35:32.341Z,16.80
2018-09-22T12:38:01.195Z,16.80
2018-09-22T12:40:29.843Z,16.80
2018-09-22T12:42:58.331Z,16.80
2018-09-22T12:45:27.139Z,16.80
2018-09-22T12:47:55.622Z,16.80
2018-09-22T12:50:25.414Z,16.80
2018-09-22T12:52:54.026Z,16.80
2018-09-22T12:55:22.578Z,16.80
2018-09-22T12:57:51.086Z,16.80
2018-09-22T13:00:19.634Z,16.90
2018-09-22T13:02:48.165Z,17.00
2018-09-22T13:05:16.630Z,17.10
2018-09-22T13:07:45.109Z,17.10
2018-09-22T13:10:14.637Z,17.10
2018-09-22T13:12:43.365Z,17.10
2018-09-22T13:15:11.931Z,17.20
2018-09-22T13:17:40.453Z,17.40
2018-09-22T13:20:09.164Z,17.50
2018-09-22T13:22:38.706Z,17.50
2018-09-22T13:25:07.259Z,17.60
2018-09-22T13:27:35.789Z,17.50
2018-09-22T13:30:04.791Z,17.50
2018-09-22T13:32:33.288Z,17.50
2018-09-22T13:35:02.527Z,17.50
2018-09-22T13:37:31.222Z,17.50
2018-09-22T13:40:00.206Z,17.50
2018-09-22T13:42:28.715Z,17.40
2018-09-22T13:44:57.231Z,17.40
2018-09-22T13:47:25.758Z,17.30
2018-09-22T13:49:54.245Z,17.30
2018-09-22T13:52:22.756Z,17.30
2018-09-22T13:54:51.393Z,17.40
2018-09-22T13:57:19.898Z,17.20
2018-09-22T13:59:48.429Z,17.10
2018-09-22T14:02:17.095Z,17.10
2018-09-22T14:04:45.701Z,17.00
2018-09-22T14:07:14.195Z,17.20
2018-09-22T14:09:42.686Z,17.20
2018-09-22T14:12:11.350Z,17.20
2018-09-22T14:14:41.791Z,17.10
2018-09-22T14:17:10.365Z,17.10
2018-09-22T14:19:39.024Z,17.10
2018-09-22T14:22:07.827Z,17.10
2018-09-22T14:24:36.318Z,17.10
2018-09-22T14:27:04.983Z,17.10
2018-09-22T14:29:33.412Z,16.90
2018-09-22T14:32:01.868Z,17.00
2018-09-22T14:34:30.334Z,16.90
2018-09-22T14:36:58.813Z,16.90
2018-09-22T14:39:27.346Z,16.80
2018-09-22T14:41:55.837Z,16.80
2018-09-22T14:44:24.334Z,16.80
2018-09-22T14:46:52.840Z,16.80
2018-09-22T14:49:21.303Z,16.70
2018-09-22T14:51:49.878Z,16.70
2018-09-22T14:54:18.402Z,16.80
2018-09-22T14:56:46.926Z,16.80
2018-09-22T14:59:15.570Z,16.70
2018-09-22T15:01:44.241Z,16.70
2018-09-22T15:04:12.735Z,16.60
2018-09-22T15:06:41.173Z,16.50
2018-09-22T15:09:09.681Z,16.40
2018-09-22T15:11:38.360Z,16.30
2018-09-22T15:14:07.090Z,16.20
2018-09-22T15:16:35.554Z,16.10
2018-09-22T15:19:04.225Z,16.00
2018-09-22T15:21:32.808Z,16.00
2018-09-22T15:24:01.343Z,16.00
2018-09-22T15:26:30.162Z,15.90
2018-09-22T15:28:58.642Z,15.80
2018-09-22T15:31:27.307Z,15.80
2018-09-22T15:33:55.821Z,15.60
2018-09-22T15:36:24.287Z,15.60
2018-09-22T15:38:52.766Z,15.50
2018-09-22T15:41:21.357Z,15.60
2018-09-22T15:43:49.924Z,15.50
2018-09-22T15:46:18.543Z,15.50
2018-09-22T15:48:47.080Z,15.40
2018-09-22T15:51:15.560Z,15.40
2018-09-22T15:53:44.176Z,15.40
2018-09-22T15:56:12.682Z,15.40
2018-09-22T15:58:41.157Z,15.40
2018-09-22T16:01:09.904Z,15.40
2018-09-22T16:03:38.433Z,15.30
2018-09-22T16:06:07.202Z,15.40
2018-09-22T16:08:35.883Z,15.40
2018-09-22T16:11:04.590Z,15.40
2018-09-22T16:13:33.138Z,15.40
2018-09-22T16:16:01.618Z,15.30
2018-09-22T16:18:30.216Z,15.30
2018-09-22T16:20:58.754Z,15.30
2018-09-22T16:23:27.292Z,15.40
2018-09-22T16:25:55.773Z,15.30
2018-09-22T16:28:24.568Z,15.40
2018-09-22T16:30:53.282Z,15.30
2018-09-22T16:33:22.359Z,15.30
2018-09-22T16:35:50.886Z,15.20
2018-09-22T16:38:19.357Z,15.20
2018-09-22T16:40:48.071Z,15.10
2018-09-22T16:43:16.873Z,15.10
2018-09-22T16:45:45.397Z,15.00
2018-09-22T16:48:13.948Z,14.90
2018-09-22T16:50:43.386Z,14.80
2018-09-22T16:53:11.872Z,14.80
2018-09-22T16:55:40.810Z,14.80
2018-09-22T16:58:09.745Z,14.70
2018-09-22T17:00:38.203Z,14.70
2018-09-22T17:03:06.749Z,14.70
2018-09-22T17:05:35.244Z,14.70
2018-09-22T17:08:03.890Z,14.70
2018-09-22T17:10:32.399Z,14.70
2018-09-22T17:13:01.159Z,14.60
2018-09-22T17:15:29.621Z,14.70
2018-09-22T17:17:58.289Z,14.60
2018-09-22T17:20:26.996Z,14.60
2018-09-22T17:22:55.464Z,14.60
2018-09-22T17:25:23.978Z,14.60
2018-09-22T17:27:52.449Z,14.50
2018-09-22T17:30:21.613Z,14.50
2018-09-22T17:32:50.109Z,14.50
2018-09-22T17:35:18.580Z,14.40
2018-09-22T17:37:47.280Z,14.40
2018-09-22T17:40:15.837Z,14.40
2018-09-22T17:42:44.615Z,14.40
2018-09-22T17:45:13.206Z,14.40
2018-09-22T17:47:41.899Z,14.40
2018-09-22T17:50:10.413Z,14.40
2018-09-22T17:52:39.048Z,14.30
2018-09-22T17:55:07.656Z,14.30
2018-09-22T17:57:36.443Z,14.30
2018-09-22T18:00:05.410Z,14.20
2018-09-22T18:02:33.902Z,14.20
2018-09-22T18:05:02.389Z,14.10
2018-09-22T18:07:30.974Z,14.10
2018-09-22T18:09:59.480Z,14.10
2018-09-22T18:12:28.341Z,14.10
2018-09-22T18:14:57.216Z,14.00
2018-09-22T18:17:25.719Z,14.00
2018-09-22T18:19:54.235Z,14.00
2018-09-22T18:22:22.715Z,14.00
2018-09-22T18:24:51.213Z,14.00
2018-09-22T18:27:20.042Z,13.90
2018-09-22T18:29:48.561Z,13.90
2018-09-22T18:32:17.066Z,13.90
2018-09-22T18:34:45.759Z,13.80
2018-09-22T18:37:14.390Z,13.80
2018-09-22T18:39:42.921Z,13.80
2018-09-22T18:42:11.433Z,13.80
2018-09-22T18:44:40.102Z,13.70
2018-09-22T18:47:08.711Z,13.70
2018-09-22T18:49:37.241Z,13.70
2018-09-22T18:52:05.957Z,13.60
2018-09-22T18:54:34.449Z,13.60
2018-09-22T18:57:03.099Z,13.60
2018-09-22T18:59:33.407Z,13.60
2018-09-22T19:02:01.903Z,13.60
2018-09-22T19:04:30.386Z,13.50
2018-09-22T19:06:58.933Z,13.50
2018-09-22T19:09:27.503Z,13.50
2018-09-22T19:11:56.003Z,13.50
2018-09-22T19:14:30.093Z,13.50
2018-09-22T19:17:05.511Z,13.40
2018-09-22T19:19:41.735Z,13.40
2018-09-22T19:22:13.628Z,13.40
2018-09-22T19:24:49.060Z,13.30
2018-09-22T19:27:28.629Z,13.30
2018-09-22T19:30:05.027Z,13.30
2018-09-22T19:32:39.622Z,13.30
2018-09-22T19:35:14.903Z,13.20
2018-09-22T19:37:50.952Z,13.20
2018-09-22T19:40:30.623Z,13.20
2018-09-22T19:43:12.803Z,13.20
2018-09-22T19:45:47.749Z,13.20
2018-09-22T19:48:20.099Z,13.10
2018-09-22T19:50:54.257Z,13.10
2018-09-22T19:53:22.822Z,13.00
2018-09-22T19:55:51.347Z,13.00
2018-09-22T19:58:20.011Z,13.00
2018-09-22T20:00:48.752Z,13.00
2018-09-22T20:03:17.410Z,13.00
2018-09-22T20:05:46.071Z,13.00
2018-09-22T20:08:14.683Z,13.00
2018-09-22T20:10:43.338Z,13.00
2018-09-22T20:13:12.085Z,13.00
2018-09-22T20:15:40.737Z,13.00
2018-09-22T20:18:09.595Z,13.00
2018-09-22T20:20:38.617Z,13.00
2018-09-22T20:23:07.264Z,13.00
2018-09-22T20:25:35.847Z,13.00
2018-09-22T20:28:04.557Z,13.00
2018-09-22T20:30:33.125Z,13.00
2018-09-22T20:33:01.891Z,12.90
2018-09-22T20:35:30.473Z,12.90
2018-09-22T20:37:59.068Z,12.90
2018-09-22T20:40:27.689Z,12.80
2018-09-22T20:42:56.563Z,12.80
2018-09-22T20:45:25.138Z,12.80
2018-09-22T20:47:53.879Z,12.70
2018-09-22T20:50:22.453Z,12.70
2018-09-22T20:52:51.018Z,12.70
2018-09-22T20:55:19.747Z,12.70
2018-09-22T20:57:49.317Z,12.70
2018-09-22T21:00:17.861Z,12.70
2018-09-22T21:02:46.493Z,12.70
2018-09-22T21:05:15.281Z,12.70
2018-09-22T21:07:43.764Z,12.70
2018-09-22T21:10:12.373Z,12.70
2018-09-22T21:12:41.846Z,12.70
2018-09-22T21:15:10.563Z,12.70
2018-09-22T21:17:39.538Z,12.70
2018-09-22T21:20:08.180Z,12.70
2018-09-22T21:22:37.016Z,12.70
2018-09-22T21:25:05.563Z,12.70
2018-09-22T21:27:34.060Z,12.70
2018-09-22T21:30:02.811Z,12.70
2018-09-22T21:32:31.349Z,12.60
2018-09-22T21:34:59.889Z,12.60
2018-09-22T21:37:28.466Z,12.60
2018-09-22T21:39:57.271Z,12.60
2018-09-22T21:42:25.789Z,12.60
2018-09-22T21:44:54.378Z,12.60
2018-09-22T21:47:23.053Z,12.60
2018-09-22T21:49:51.563Z,12.60
2018-09-22T21:52:20.170Z,12.50
2018-09-22T21:54:48.702Z,12.50
2018-09-22T21:57:17.374Z,12.60
2018-09-22T21:59:46.023Z,12.50
2018-09-22T22:02:14.541Z,12.50
2018-09-22T22:04:43.516Z,12.50
2018-09-22T22:07:12.180Z,12.50
2018-09-22T22:09:40.904Z,12.50
2018-09-22T22:12:09.517Z,12.50
2018-09-22T22:14:38.137Z,12.50
2018-09-22T22:17:06.704Z,12.50
2018-09-22T22:19:35.286Z,12.50
2018-09-22T22:22:03.921Z,12.50
2018-09-22T22:24:32.458Z,12.50
2018-09-22T22:27:01.007Z,12.50
2018-09-22T22:29:30.725Z,12.50
2018-09-22T22:31:59.246Z,12.50
2018-09-22T22:34:27.928Z,12.50
2018-09-22T22:36:56.498Z,12.50
2018-09-22T22:39:25.151Z,12.50
2018-09-22T22:41:53.751Z,12.50
2018-09-22T22:44:22.467Z,12.50
2018-09-22T22:46:51.022Z,12.50
2018-09-22T22:49:19.612Z,12.50
2018-09-22T22:51:48.155Z,12.50
2018-09-22T22:54:16.906Z,12.50
2018-09-22T22:56:45.721Z,12.50
2018-09-22T22:59:14.221Z,12.50
2018-09-22T23:01:42.785Z,12.50
2018-09-22T23:04:11.387Z,12.40
2018-09-22T23:06:40.189Z,12.40
2018-09-22T23:09:09.922Z,12.40
2018-09-22T23:11:38.522Z,12.40
2018-09-22T23:14:07.124Z,12.40
2018-09-22T23:16:36.187Z,12.40
2018-09-22T23:19:05.591Z,12.50
2018-09-22T23:21:34.407Z,12.50
2018-09-22T23:24:02.945Z,12.40
2018-09-22T23:26:31.508Z,12.50
2018-09-22T23:29:00.091Z,12.50
2018-09-22T23:31:28.675Z,12.50
2018-09-22T23:33:57.216Z,12.50
2018-09-22T23:36:25.902Z,12.50
2018-09-22T23:38:54.683Z,12.50
2018-09-22T23:41:23.369Z,12.50
2018-09-22T23:43:51.879Z,12.50
2018-09-22T23:46:20.400Z,12.40
2018-09-22T23:48:49.047Z,12.40
2018-09-22T23:51:17.540Z,12.40
2018-09-22T23:53:46.123Z,12.40
2018-09-22T23:56:14.743Z,12.40
2018-09-22T23:58:43.435Z,12.40
